Aviation Digital Data Service (ADDS)

Output produced by METARs form (0637 UTC 22 October 2021)
found at http://www.aviationweather.gov/metar/data/
 
KPAO 220347Z 00000KT 10SM SCT030 BKN080 19/14 A3004 RMK LAST
KSQL 220635Z AUTO 11006KT 10SM OVC023 19/15 A3004 RMK AO2
KSJC 220553Z 14012KT 10SM FEW005 FEW014 SCT160 17/14 A3005 RMK AO2 SLP173 T01720144 10228 20172 53000
KSJC 220521Z 2206/2306 17009KT P6SM FEW020 BKN030 OVC050 
     FM220800 16011KT P6SM VCSH BKN015 OVC025 
     FM221300 14013KT 5SM -RA BR OVC012 
     FM221600 17007KT 6SM -RA BR BKN015 BKN020 OVC030 
     FM221900 22006KT 6SM BR VCSH FEW018 BKN025 BKN050 
     FM222200 29010KT P6SM FEW030 FEW050 BKN250 
     FM230400 23005KT P6SM SCT030 BKN250
       
KSFO 220556Z 00000KT 10SM FEW009 SCT017 OVC028 18/14 A3003 RMK AO2 SLP169 T01830144 10194 20178 58002
KSFO 220521Z 2206/2312 17010KT P6SM VCSH FEW009 BKN018 BKN050 
     FM220900 16014G21KT 6SM -RA BR BKN012 OVC020 
     TEMPO 2212/2214 3SM RA BR OVC010 
     FM221500 23011G18KT 5SM -RA BR OVC012 
     FM221800 25008KT 6SM -SHRA BR SCT015 BKN020 BKN030 
     FM222100 28010KT P6SM VCSH FEW015 SCT025 BKN250 
     FM230200 27007KT P6SM FEW025 BKN250 
     FM230800 23005KT P6SM SCT020 BKN250
       
KHWD 220554Z 22010KT 10SM CLR 18/14 A3003 RMK AO2 SLP179 T01830144 10194 20183 56001
KOAK 220553Z 22013KT 10SM FEW009 BKN028 BKN250 18/15 A3005 RMK AO2 SLP174 T01830150 10194 20183 55000
KOAK 220521Z 2206/2312 22012KT P6SM VCSH SCT012 BKN025 BKN080 
     FM220800 16014G21KT 6SM -RA BR BKN012 OVC020 
     TEMPO 2213/2214 3SM RA BR OVC010 
     FM221500 22011G18KT 5SM -RA BR OVC012 
     FM221800 25008KT 6SM -SHRA BR SCT015 BKN020 BKN030 
     FM222100 27010KT P6SM VCSH FEW015 SCT025 BKN250 
     FM230200 27005KT P6SM FEW025 BKN250 
     FM230800 20004KT P6SM SCT020 BKN200
       
KLVK 220553Z AUTO 24009KT 10SM CLR 17/14 A3003 RMK AO2 SLP167 T01720139 10228 20167 55002 $
KLVK 220521Z 2206/2306 28005KT P6SM FEW030 OVC100 
     FM220800 22008KT P6SM VCSH SCT020 OVC030 
     FM221200 23010KT 6SM -RA BR OVC020 
     FM221800 26007KT P6SM FEW025 BKN050 BKN200 
     FM230400 24005KT P6SM SCT020 BKN050 BKN200
       
KCCR 220553Z 19007KT 10SM OVC024 19/15 A3002 RMK AO2 SLP152 T01890150 10211 20189 58001
KSCK 220555Z AUTO 00000KT 10SM BKN110 17/16 A3001 RMK AO2 SLP162 T01720161 10239 20167 56003
KSCK 220525Z 2206/2306 35004KT P6SM BKN110 
     FM221300 16008KT 4SM -RA OVC035 
     FM221900 23006KT P6SM BKN050
       
KSNS 220615Z AUTO 33003KT 10SM FEW007 OVC012 17/15 A3007 RMK AO2 T01720150
KSNS 220521Z 2206/2306 VRB05KT P6SM OVC010 
     FM221200 12009KT P6SM VCSH OVC020 
     FM221400 14007KT 4SM -RA BR OVC020 
     FM221700 VRB06KT P6SM VCSH OVC030 
     FM222000 28008KT P6SM BKN025 OVC050 
     FM230400 29004KT P6SM OVC025
       
KCVH 220635Z AUTO 00000KT 10SM FEW008 FEW011 OVC022 16/14 A3009 RMK A01